Time;durP1;ratioP1;P1;durP2;ratioP2;P2;SDS_P1;SDS_P2;PMS_P1;PMS_P2;Temp;Humidity;BMP_temperature;BMP_pressure;BME280_temperature;BME280_humidity;BME280_pressure;Samples;Min_cycle;Max_cycle;Signal;HPM_P1;HPM_P2
2021/08/01 00:01:23;;;;;;;4.73;2.73;;;25.60;52.00;;;;;;6180590;23;20159;-81
2021/08/01 00:03:52;;;;;;;3.70;3.40;;;25.60;51.90;;;;;;6205892;23;20152;-81
2021/08/01 00:06:18;;;;;;;3.00;2.70;;;25.60;51.90;;;;;;6206042;23;20445;-81
2021/08/01 00:08:45;;;;;;;2.60;2.40;;;25.60;51.50;;;;;;6182187;23;20383;-81
2021/08/01 00:11:11;;;;;;;2.83;2.63;;;25.60;51.90;;;;;;6208269;23;20378;-81
2021/08/01 00:13:38;;;;;;;3.07;2.87;;;25.60;51.90;;;;;;6208150;23;20371;-81
2021/08/01 00:16:04;;;;;;;4.40;3.27;;;25.60;52.00;;;;;;6208170;23;20371;-81
2021/08/01 00:18:30;;;;;;;2.80;2.60;;;25.60;51.90;;;;;;6182658;23;20414;-81
2021/08/01 00:20:56;;;;;;;2.80;2.60;;;25.60;51.90;;;;;;6208469;23;20378;-81
2021/08/01 00:23:22;;;;;;;3.47;2.70;;;25.60;52.00;;;;;;6207815;23;20379;-81
2021/08/01 00:25:48;;;;;;;3.03;2.80;;;25.60;52.00;;;;;;6182369;23;20186;-81
2021/08/01 00:28:14;;;;;;;3.43;3.13;;;25.60;52.00;;;;;;6207173;23;20508;-81
2021/08/01 00:30:40;;;;;;;2.90;2.70;;;25.60;52.00;;;;;;6208604;23;20203;-81
2021/08/01 00:33:09;;;;;;;5.10;2.90;;;25.60;52.00;;;;;;6207036;23;20469;-81
2021/08/01 00:35:35;;;;;;;2.77;2.50;;;25.60;52.00;;;;;;6207274;23;20166;-81
2021/08/01 00:38:03;;;;;;;3.97;3.57;;;25.60;52.00;;;;;;6206560;23;20438;-81
2021/08/01 00:40:35;;;;;;;4.33;3.70;;;25.60;52.00;;;;;;6181306;23;20856;-81
2021/08/01 00:43:02;;;;;;;5.60;3.10;;;25.60;52.00;;;;;;6206738;23;20390;-81
2021/08/01 00:45:29;;;;;;;3.87;3.53;;;25.60;52.00;;;;;;6208120;23;20410;-81
2021/08/01 00:47:55;;;;;;;3.07;2.87;;;25.60;52.00;;;;;;6206238;23;20414;-81
2021/08/01 00:50:23;;;;;;;3.40;2.90;;;25.60;52.00;;;;;;6205922;23;20429;-81
2021/08/01 00:52:56;;;;;;;3.70;3.40;;;25.60;52.00;;;;;;6183781;23;20402;-83
2021/08/01 00:55:22;;;;;;;4.87;2.73;;;25.60;52.00;;;;;;6206321;23;20383;-81
2021/08/01 00:57:53;;;;;;;3.60;3.17;;;25.60;52.00;;;;;;6206794;23;20386;-81
2021/08/01 01:03:18;;;;;;;3.27;2.73;;;25.60;52.00;;;;;;6206971;23;20363;-81
2021/08/01 01:06:04;;;;;;;3.63;3.27;;;25.60;52.00;;;;;;6206562;23;20968;-81
2021/08/01 01:09:04;;;;;;;3.27;2.97;;;25.60;52.10;;;;;;6181040;23;20398;-81
2021/08/01 01:11:36;;;;;;;3.40;2.97;;;25.60;52.10;;;;;;6141608;23;20411;-81
2021/08/01 01:14:06;;;;;;;4.10;3.73;;;25.50;52.10;;;;;;6207704;23;20678;-81
2021/08/01 01:16:42;;;;;;;3.73;3.43;;;25.50;52.10;;;;;;6207727;23;20355;-81
2021/08/01 01:19:12;;;;;;;4.10;3.70;;;25.60;52.00;;;;;;6207317;23;20359;-81
2021/08/01 01:22:12;;;;;;;3.10;2.90;;;25.50;52.00;;;;;;6205928;23;20379;-81
2021/08/01 01:24:41;;;;;;;3.23;3.00;;;25.60;52.00;;;;;;6192910;23;20416;-81
2021/08/01 01:27:27;;;;;;;2.90;2.70;;;25.50;52.00;;;;;;6155953;23;20404;-81
2021/08/01 01:30:02;;;;;;;3.93;3.47;;;25.60;52.10;;;;;;6205777;23;20437;-81
2021/08/01 01:32:47;;;;;;;3.73;3.30;;;25.50;52.00;;;;;;6180544;23;20486;-81
2021/08/01 01:35:18;;;;;;;4.57;3.30;;;25.50;52.00;;;;;;6180645;23;20410;-80
2021/08/01 01:37:50;;;;;;;4.47;3.13;;;25.50;52.00;;;;;;6205841;23;20434;-80
2021/08/01 01:40:20;;;;;;;3.47;3.17;;;25.50;52.00;;;;;;6156663;23;20389;-81
2021/08/01 01:42:53;;;;;;;3.20;2.87;;;25.50;52.00;;;;;;6181005;23;20817;-81
2021/08/01 01:45:19;;;;;;;3.00;2.80;;;25.50;52.00;;;;;;6180528;23;20718;-80
2021/08/01 01:47:46;;;;;;;3.27;2.90;;;25.50;52.00;;;;;;6180401;23;20383;-80
2021/08/01 01:50:16;;;;;;;3.83;3.53;;;25.50;52.00;;;;;;6205842;23;20383;-81
2021/08/01 01:52:44;;;;;;;3.90;3.60;;;25.50;52.00;;;;;;6180182;23;20394;-82
2021/08/01 01:55:10;;;;;;;3.37;3.07;;;25.50;52.00;;;;;;6197858;23;20426;-81
2021/08/01 01:57:38;;;;;;;5.40;3.20;;;25.50;52.00;;;;;;6173171;23;20383;-82
2021/08/01 02:00:07;;;;;;;4.00;2.97;;;25.50;52.00;;;;;;6198420;23;20860;-82
2021/08/01 02:02:36;;;;;;;3.20;2.90;;;25.50;51.90;;;;;;6196378;23;20491;-82
2021/08/01 02:05:02;;;;;;;3.27;2.97;;;25.50;51.90;;;;;;6198391;23;20422;-82
2021/08/01 02:07:30;;;;;;;3.53;3.23;;;25.50;51.90;;;;;;6172538;23;20462;-82
2021/08/01 02:10:28;;;;;;;3.63;2.97;;;25.50;51.80;;;;;;6198934;23;20371;-82
2021/08/01 02:12:57;;;;;;;3.70;3.40;;;25.50;51.90;;;;;;6198524;23;20729;-82
2021/08/01 02:15:34;;;;;;;4.03;3.40;;;25.50;51.90;;;;;;6197683;23;20399;-82
2021/08/01 02:18:08;;;;;;;2.87;2.67;;;25.50;51.90;;;;;;6199173;23;20364;-82
2021/08/01 02:20:45;;;;;;;4.07;3.13;;;25.50;51.90;;;;;;6198059;23;20457;-82
2021/08/01 02:23:44;;;;;;;3.90;3.33;;;25.50;51.90;;;;;;6197159;23;20383;-82
2021/08/01 02:26:16;;;;;;;3.27;2.97;;;25.50;51.90;;;;;;6171991;23;20419;-82
2021/08/01 02:28:43;;;;;;;3.80;3.40;;;25.50;51.90;;;;;;6197420;23;20359;-82
2021/08/01 02:31:09;;;;;;;4.93;3.40;;;25.50;51.90;;;;;;6170171;23;20874;-82
2021/08/01 02:33:35;;;;;;;3.40;2.67;;;25.50;51.80;;;;;;6195744;23;20387;-82
2021/08/01 02:36:08;;;;;;;5.33;2.80;;;25.50;51.80;;;;;;6200055;23;20379;-83
2021/08/01 02:38:35;;;;;;;3.60;2.90;;;25.50;51.80;;;;;;6195368;23;20979;-82
2021/08/01 02:41:24;;;;;;;3.20;2.90;;;25.50;51.80;;;;;;6199377;23;20374;-81
2021/08/01 02:43:50;;;;;;;3.23;2.93;;;25.50;51.80;;;;;;6204059;23;20387;-81
2021/08/01 02:46:20;;;;;;;4.63;3.47;;;25.50;51.80;;;;;;6206163;23;20406;-81
2021/08/01 02:48:48;;;;;;;5.83;3.50;;;25.50;51.70;;;;;;6179685;23;20394;-82
2021/08/01 02:51:16;;;;;;;4.70;3.50;;;25.50;51.80;;;;;;6204066;23;20457;-81
2021/08/01 02:53:56;;;;;;;6.33;4.03;;;25.50;51.70;;;;;;6205500;23;20391;-81
2021/08/01 02:56:25;;;;;;;2.87;2.67;;;25.50;51.70;;;;;;6179779;23;20825;-81
2021/08/01 02:58:54;;;;;;;3.07;2.80;;;25.50;51.70;;;;;;6204403;23;20408;-81
2021/08/01 03:01:20;;;;;;;3.53;2.70;;;25.50;51.70;;;;;;6155288;23;20414;-80
2021/08/01 03:03:48;;;;;;;3.20;2.80;;;25.50;51.70;;;;;;6205277;23;20403;-81
2021/08/01 03:06:15;;;;;;;3.83;2.77;;;25.50;51.70;;;;;;6179293;23;20426;-80
2021/08/01 03:08:43;;;;;;;2.90;2.70;;;25.50;51.70;;;;;;6204001;23;20387;-80
2021/08/01 03:11:18;;;;;;;3.40;3.10;;;25.50;51.60;;;;;;6203692;23;20388;-81
2021/08/01 03:13:45;;;;;;;3.50;3.20;;;25.50;51.60;;;;;;6204416;23;20382;-80
2021/08/01 03:16:12;;;;;;;2.83;2.50;;;25.50;51.60;;;;;;6203870;23;20390;-82
2021/08/01 03:18:39;;;;;;;3.47;2.53;;;25.50;51.60;;;;;;6204821;23;20413;-81
2021/08/01 03:21:04;;;;;;;3.60;3.30;;;25.50;51.60;;;;;;6206065;23;20375;-81
2021/08/01 03:23:30;;;;;;;3.43;2.77;;;25.50;51.60;;;;;;6179067;23;20383;-81
2021/08/01 03:25:57;;;;;;;5.17;3.17;;;25.50;51.60;;;;;;6205541;23;20414;-81
2021/08/01 03:28:23;;;;;;;3.27;2.97;;;25.50;51.60;;;;;;6179254;23;20383;-81
2021/08/01 03:30:48;;;;;;;2.90;2.63;;;25.50;51.70;;;;;;6178914;23;20391;-81
2021/08/01 03:33:14;;;;;;;3.40;3.10;;;25.50;51.60;;;;;;6205413;23;20136;-81
2021/08/01 03:35:40;;;;;;;3.13;2.83;;;25.50;51.60;;;;;;6203594;23;20156;-81
2021/08/01 03:38:05;;;;;;;3.67;3.37;;;25.50;51.60;;;;;;6203184;23;20156;-81
2021/08/01 03:40:31;;;;;;;3.40;3.10;;;25.50;51.60;;;;;;6179040;23;20182;-81
2021/08/01 03:42:57;;;;;;;3.30;3.00;;;25.50;51.60;;;;;;6203420;23;20155;-81
2021/08/01 03:45:23;;;;;;;2.90;2.70;;;25.50;51.60;;;;;;6178267;23;20203;-81
2021/08/01 03:47:50;;;;;;;5.03;3.37;;;25.50;51.60;;;;;;6178533;23;20152;-81
2021/08/01 03:50:17;;;;;;;3.33;2.70;;;25.50;51.60;;;;;;6204203;23;20415;-81
2021/08/01 03:52:43;;;;;;;4.30;3.00;;;25.50;51.60;;;;;;6153254;23;20384;-81
2021/08/01 03:55:09;;;;;;;3.80;3.17;;;25.50;51.60;;;;;;6179268;23;20383;-81
2021/08/01 03:57:36;;;;;;;3.60;3.13;;;25.50;51.60;;;;;;6204390;23;20846;-81
2021/08/01 04:00:03;;;;;;;3.50;3.20;;;25.50;51.60;;;;;;6204407;23;20459;-81
2021/08/01 04:02:29;;;;;;;3.60;3.30;;;25.50;51.60;;;;;;6204942;23;20372;-81
2021/08/01 04:04:56;;;;;;;3.00;2.70;;;25.50;51.60;;;;;;6178115;23;20758;-81
2021/08/01 04:07:22;;;;;;;3.27;2.97;;;25.50;51.60;;;;;;6178194;23;20384;-81
2021/08/01 04:09:48;;;;;;;3.30;3.10;;;25.50;51.60;;;;;;6203302;23;20862;-81
2021/08/01 04:12:15;;;;;;;4.57;3.30;;;25.50;51.60;;;;;;6204472;23;20375;-81
2021/08/01 04:14:42;;;;;;;3.80;3.50;;;25.50;51.60;;;;;;6204249;23;20375;-81
2021/08/01 04:17:09;;;;;;;3.53;3.23;;;25.50;51.60;;;;;;6203804;23;20387;-81
2021/08/01 04:19:35;;;;;;;4.07;3.33;;;25.50;51.60;;;;;;6202621;23;20379;-81
2021/08/01 04:22:01;;;;;;;3.53;3.23;;;25.50;51.70;;;;;;6203670;23;20471;-81
2021/08/01 04:24:27;;;;;;;4.20;3.80;;;25.50;51.70;;;;;;6178275;23;20387;-81
2021/08/01 04:26:54;;;;;;;3.87;3.20;;;25.50;51.70;;;;;;6203520;23;20650;-81
2021/08/01 04:29:19;;;;;;;3.77;3.37;;;25.50;51.70;;;;;;6178834;23;20144;-81
2021/08/01 04:31:45;;;;;;;5.03;3.97;;;25.50;51.80;;;;;;6204312;23;20418;-81
2021/08/01 04:34:11;;;;;;;3.50;3.20;;;25.50;51.70;;;;;;6204694;23;20148;-81
2021/08/01 04:36:37;;;;;;;3.73;3.33;;;25.50;51.80;;;;;;6177723;23;20897;-81
2021/08/01 04:39:03;;;;;;;3.67;3.33;;;25.50;51.80;;;;;;6204892;23;20155;-82
2021/08/01 04:41:29;;;;;;;4.13;3.20;;;25.40;51.70;;;;;;6204556;23;20383;-82
2021/08/01 04:43:56;;;;;;;3.40;3.10;;;25.40;51.80;;;;;;6204786;23;20164;-82
2021/08/01 04:46:30;;;;;;;7.77;3.20;;;25.50;51.80;;;;;;6204837;23;20430;-89
2021/08/01 04:48:56;;;;;;;3.60;3.17;;;25.50;51.80;;;;;;6130920;23;20458;-82
2021/08/01 04:51:22;;;;;;;3.43;3.13;;;25.50;51.90;;;;;;6203585;23;20386;-83
2021/08/01 04:53:48;;;;;;;3.80;3.50;;;25.40;51.80;;;;;;6204573;23;20510;-82
2021/08/01 04:56:49;;;;;;;3.47;2.70;;;25.50;51.90;;;;;;6206809;23;20167;-82
2021/08/01 04:59:17;;;;;;;3.90;3.10;;;25.50;51.90;;;;;;6183208;23;20358;-82
2021/08/01 05:01:46;;;;;;;3.43;3.13;;;25.40;51.90;;;;;;6207353;23;20382;-81
2021/08/01 05:04:13;;;;;;;3.57;3.27;;;25.50;52.00;;;;;;6207682;23;20390;-81
2021/08/01 05:06:39;;;;;;;4.90;2.90;;;25.40;51.90;;;;;;6182639;23;20532;-82
2021/08/01 05:09:05;;;;;;;3.60;3.30;;;25.40;51.90;;;;;;6180949;23;20375;-81
2021/08/01 05:11:31;;;;;;;3.53;2.50;;;25.50;51.90;;;;;;6183237;23;20402;-82
2021/08/01 05:13:57;;;;;;;3.70;3.40;;;25.50;51.90;;;;;;6208127;23;20158;-83
2021/08/01 05:16:24;;;;;;;4.80;3.07;;;25.50;51.90;;;;;;6207185;23;20371;-82
2021/08/01 05:18:50;;;;;;;3.90;3.03;;;25.50;51.90;;;;;;6204287;23;20152;-83
2021/08/01 05:21:20;;;;;;;3.97;2.90;;;25.50;52.00;;;;;;6205523;23;20398;-83
2021/08/01 05:23:46;;;;;;;3.10;2.80;;;25.50;52.00;;;;;;6204737;23;20179;-83
2021/08/01 05:26:13;;;;;;;5.33;3.17;;;25.40;51.90;;;;;;6204192;23;20430;-83
2021/08/01 05:28:38;;;;;;;3.73;3.43;;;25.50;52.00;;;;;;6205335;23;20455;-83
2021/08/01 05:31:09;;;;;;;4.90;3.57;;;25.50;52.00;;;;;;6205056;23;20391;-82
2021/08/01 05:33:35;;;;;;;3.80;2.80;;;25.50;52.00;;;;;;6180221;23;20151;-82
2021/08/01 05:36:08;;;;;;;3.73;2.73;;;25.50;52.00;;;;;;6206172;23;20375;-82
2021/08/01 05:38:35;;;;;;;4.90;3.20;;;25.50;52.00;;;;;;6173333;23;20390;-84
2021/08/01 05:41:00;;;;;;;3.40;2.77;;;25.50;52.00;;;;;;6197570;23;20414;-85
2021/08/01 05:43:30;;;;;;;4.70;3.03;;;25.50;52.00;;;;;;6200165;23;20378;-88
2021/08/01 05:45:59;;;;;;;3.90;3.10;;;25.50;52.00;;;;;;6177811;23;20190;-91
2021/08/01 05:51:56;;;;;;;3.10;2.80;;;25.50;52.00;;;;;;6205189;23;20355;-91
2021/08/01 05:54:27;;;;;;;2.80;2.60;;;25.50;52.00;;;;;;6200751;23;20375;-82
2021/08/01 05:56:52;;;;;;;3.70;3.10;;;25.50;52.10;;;;;;6202723;23;20699;-83
2021/08/01 06:00:15;;;;;;;3.00;2.70;;;25.50;52.10;;;;;;6203564;23;20364;-84
2021/08/01 06:02:41;;;;;;;3.90;2.67;;;25.50;52.00;;;;;;6199982;23;20147;-83
2021/08/01 06:05:07;;;;;;;3.13;2.73;;;25.50;52.10;;;;;;6172673;23;20419;-84
2021/08/01 06:07:33;;;;;;;3.83;3.13;;;25.50;52.20;;;;;;6174591;23;20362;-86
2021/08/01 06:09:59;;;;;;;4.37;2.77;;;25.50;52.10;;;;;;6175133;23;20389;-86
2021/08/01 06:12:28;;;;;;;3.90;3.17;;;25.50;52.10;;;;;;6150441;23;20155;-86
2021/08/01 06:14:55;;;;;;;3.60;2.87;;;25.50;52.10;;;;;;6175641;23;20387;-86
2021/08/01 06:17:27;;;;;;;3.37;2.93;;;25.50;52.10;;;;;;6175104;23;20387;-86
2021/08/01 06:19:55;;;;;;;3.20;2.83;;;25.50;52.10;;;;;;6175360;23;20438;-86
2021/08/01 06:22:21;;;;;;;2.73;2.43;;;25.50;52.10;;;;;;6201213;23;20384;-86
2021/08/01 06:24:47;;;;;;;5.00;4.20;;;25.50;52.10;;;;;;6200044;23;20375;-86
2021/08/01 06:27:13;;;;;;;4.37;3.10;;;25.50;52.20;;;;;;6174766;23;20368;-86
2021/08/01 06:29:39;;;;;;;3.30;2.83;;;25.50;52.10;;;;;;6200061;23;20152;-87
2021/08/01 06:32:04;;;;;;;2.70;2.47;;;25.50;52.20;;;;;;6199346;23;20168;-86
2021/08/01 06:34:33;;;;;;;2.97;2.67;;;25.50;52.10;;;;;;6174044;23;20152;-86
2021/08/01 06:36:59;;;;;;;3.63;3.17;;;25.50;52.20;;;;;;6173386;23;20590;-86
2021/08/01 06:39:24;;;;;;;3.53;2.87;;;25.50;52.20;;;;;;6174561;23;20379;-86
2021/08/01 06:41:50;;;;;;;4.77;2.87;;;25.50;52.20;;;;;;6198068;23;20179;-86
2021/08/01 06:44:16;;;;;;;3.00;2.70;;;25.50;52.20;;;;;;6198459;23;20576;-86
2021/08/01 06:46:42;;;;;;;2.93;2.63;;;25.50;52.20;;;;;;6173883;23;20184;-86
2021/08/01 06:49:11;;;;;;;3.20;2.90;;;25.50;52.20;;;;;;6198610;23;20182;-86
2021/08/01 06:51:37;;;;;;;2.73;2.53;;;25.50;52.20;;;;;;6200341;23;20368;-86
2021/08/01 06:54:05;;;;;;;3.13;2.83;;;25.50;52.20;;;;;;6200002;23;20147;-86
2021/08/01 06:56:31;;;;;;;2.77;2.53;;;25.50;52.20;;;;;;6174799;23;20383;-86
2021/08/01 06:58:57;;;;;;;3.00;2.30;;;25.50;52.20;;;;;;6198573;23;20385;-86
2021/08/01 07:01:23;;;;;;;4.53;2.30;;;25.60;52.30;;;;;;6200411;23;20445;-86
2021/08/01 07:03:48;;;;;;;3.30;2.60;;;25.50;52.20;;;;;;6198605;23;20226;-86
2021/08/01 07:09:40;;;;;;;4.60;2.60;;;25.60;52.30;;;;;;6202466;23;20139;-84
2021/08/01 07:12:08;;;;;;;2.53;2.33;;;25.50;52.30;;;;;;6202301;23;20390;-89
2021/08/01 07:14:36;;;;;;;5.83;2.43;;;25.50;52.30;;;;;;6204155;23;20462;-87
2021/08/01 07:17:03;;;;;;;4.50;2.93;;;25.60;52.40;;;;;;6176967;23;20441;-88
2021/08/01 07:19:29;;;;;;;3.63;2.70;;;25.60;52.40;;;;;;6175401;23;20751;-87
2021/08/01 07:21:58;;;;;;;3.40;2.83;;;25.60;52.40;;;;;;6202239;23;20359;-89
2021/08/01 07:25:21;;;;;;;;;;;;;;;;;;;;;
2021/08/01 07:58:34;;;;;;;2.57;2.20;;;25.60;52.60;;;;;;5952867;24;20385;-89
2021/08/01 08:01:47;;;;;;;3.83;2.60;;;25.60;52.60;;;;;;5968782;24;20397;-88
2021/08/01 09:18:15;;;;;;;5.37;2.70;;;25.40;53.30;;;;;;6266836;22;20451;-83
2021/08/01 09:21:19;;;;;;;;;;;;;;;;;;;;;
2021/08/01 09:24:11;;;;;;;3.30;2.37;;;25.50;53.30;;;;;;6145502;23;20385;-83
2021/08/01 09:33:37;;;;;;;3.23;2.77;;;25.40;53.50;;;;;;6145996;23;20384;-84
2021/08/01 09:36:42;;;;;;;2.93;2.13;;;25.40;53.80;;;;;;6144779;23;20377;-84
2021/08/01 09:39:32;;;;;;;2.47;2.27;;;25.40;53.80;;;;;;6121039;23;20373;-83
2021/08/01 09:42:08;;;;;;;3.07;2.70;;;25.40;53.90;;;;;;6121255;23;20369;-83
2021/08/01 09:44:48;;;;;;;;;;;;;;;;;;;;;
2021/08/01 09:47:31;;;;;;;2.53;2.10;;;25.40;53.90;;;;;;6140263;23;20373;-82
2021/08/01 09:50:17;;;;;;;3.80;2.97;;;25.40;53.90;;;;;;6140590;23;20377;-82
2021/08/01 09:52:50;;;;;;;2.77;2.37;;;25.40;54.00;;;;;;6115482;23;20377;-82
2021/08/01 09:55:20;;;;;;;2.87;2.43;;;25.30;54.00;;;;;;6139879;23;20380;-83
2021/08/01 09:57:57;;;;;;;3.10;2.33;;;25.30;54.10;;;;;;6115986;23;20385;-82
2021/08/01 10:00:24;;;;;;;3.33;2.70;;;25.30;54.00;;;;;;6169868;23;20381;-83
2021/08/01 10:02:58;;;;;;;2.83;2.57;;;25.30;54.10;;;;;;6263396;23;20388;-83
2021/08/01 10:05:25;;;;;;;3.67;2.83;;;25.30;54.20;;;;;;6264422;23;20420;-83
2021/08/01 10:07:54;;;;;;;2.60;2.40;;;25.30;54.20;;;;;;6265355;23;20377;-82
2021/08/01 10:10:44;;;;;;;2.80;2.50;;;25.30;54.20;;;;;;6266453;23;20377;-83
2021/08/01 10:13:13;;;;;;;3.83;2.20;;;25.30;54.20;;;;;;6265754;23;20701;-83
2021/08/01 10:15:45;;;;;;;2.47;2.20;;;25.30;54.20;;;;;;6240247;23;20407;-82
2021/08/01 10:18:11;;;;;;;3.03;2.73;;;25.30;54.20;;;;;;6266975;23;20366;-82
2021/08/01 10:23:43;;;;;;;3.30;2.30;;;25.30;54.20;;;;;;6267336;23;20365;-83
2021/08/01 10:26:12;;;;;;;4.43;2.37;;;25.30;54.20;;;;;;6266157;23;20420;-83
2021/08/01 10:28:50;;;;;;;2.97;2.10;;;25.30;54.10;;;;;;6265615;23;20851;-83
2021/08/01 10:31:46;;;;;;;3.20;2.23;;;25.30;54.10;;;;;;6266024;23;20461;-83
2021/08/01 10:34:26;;;;;;;1.93;1.73;;;25.40;54.10;;;;;;6265345;23;20381;-83
2021/08/01 10:37:06;;;;;;;2.90;2.37;;;25.30;54.00;;;;;;6239624;23;20413;-83
2021/08/01 10:46:41;;;;;;;2.73;2.43;;;25.30;54.00;;;;;;6143317;23;20435;-82
2021/08/01 10:49:12;;;;;;;3.93;2.67;;;25.30;54.00;;;;;;6119086;23;20787;-81
2021/08/01 10:54:31;;;;;;;6.20;2.10;;;25.30;54.00;;;;;;6143647;23;20358;-82
2021/08/01 10:57:44;;;;;;;2.73;2.50;;;25.30;54.00;;;;;;6143570;23;20385;-82
2021/08/01 11:00:15;;;;;;;3.87;2.53;;;25.30;53.90;;;;;;6141434;23;20389;-82
2021/08/01 11:03:06;;;;;;;2.60;2.13;;;25.30;54.00;;;;;;6118576;23;20416;-82
2021/08/01 11:05:38;;;;;;;2.50;2.13;;;25.30;54.00;;;;;;6116847;23;20433;-82
2021/08/01 11:08:09;;;;;;;2.00;1.90;;;25.30;53.90;;;;;;6116421;23;20381;-82
2021/08/01 11:10:38;;;;;;;2.00;1.80;;;25.30;53.90;;;;;;6140371;23;20722;-81
2021/08/01 11:13:30;;;;;;;2.20;2.00;;;25.30;53.90;;;;;;6116813;23;20388;-82
2021/08/01 11:16:02;;;;;;;3.00;1.90;;;25.30;53.80;;;;;;6143928;23;20381;-84
2021/08/01 11:18:31;;;;;;;2.77;2.50;;;25.20;53.80;;;;;;6184433;23;20400;-83
2021/08/01 11:21:04;;;;;;;2.37;2.10;;;25.30;53.90;;;;;;6237943;23;20377;-83
2021/08/01 11:23:48;;;;;;;3.90;1.90;;;25.30;53.90;;;;;;6262545;23;20385;-83
2021/08/01 11:26:16;;;;;;;2.27;2.07;;;25.30;53.80;;;;;;6236061;23;20428;-82
2021/08/01 11:28:44;;;;;;;2.00;1.80;;;25.30;53.80;;;;;;6260846;23;20431;-83
2021/08/01 11:31:19;;;;;;;2.40;2.20;;;25.30;53.80;;;;;;6258170;23;20568;-84
2021/08/01 11:33:47;;;;;;;1.93;1.63;;;25.30;53.80;;;;;;6257753;23;20416;-84
2021/08/01 11:36:13;;;;;;;3.47;2.40;;;25.30;53.80;;;;;;6259555;23;20923;-84
2021/08/01 11:38:59;;;;;;;2.07;1.80;;;25.30;53.70;;;;;;6235940;23;20409;-83
2021/08/01 11:41:35;;;;;;;2.60;2.40;;;25.40;53.80;;;;;;6234369;23;20386;-85
2021/08/01 11:44:18;;;;;;;4.27;2.10;;;25.30;53.70;;;;;;6234252;23;20372;-84
2021/08/01 11:46:59;;;;;;;2.40;2.20;;;25.40;53.70;;;;;;6260324;23;20723;-85
2021/08/01 11:49:48;;;;;;;3.10;2.37;;;25.30;53.60;;;;;;6260112;23;20437;-83
2021/08/01 11:52:34;;;;;;;2.70;2.30;;;25.40;53.70;;;;;;6258810;23;20839;-85
2021/08/01 11:55:00;;;;;;;4.40;2.40;;;25.40;53.70;;;;;;6235249;23;20380;-85
2021/08/01 11:57:30;;;;;;;3.00;2.10;;;25.30;53.60;;;;;;6235500;23;20403;-85
2021/08/01 11:59:56;;;;;;;2.37;2.17;;;25.40;53.70;;;;;;6261674;23;20405;-85
2021/08/01 12:02:38;;;;;;;2.17;1.97;;;25.30;53.60;;;;;;6237982;23;20387;-85
2021/08/01 12:05:14;;;;;;;2.23;2.03;;;25.40;53.60;;;;;;6264130;23;20419;-85
2021/08/01 12:07:43;;;;;;;2.60;2.10;;;25.40;53.50;;;;;;6236393;23;20387;-85
2021/08/01 12:10:26;;;;;;;2.20;2.00;;;25.40;53.50;;;;;;6257480;23;20763;-85
2021/08/01 12:12:56;;;;;;;1.90;1.73;;;25.40;53.50;;;;;;6232328;23;20384;-85
2021/08/01 12:15:26;;;;;;;2.80;2.37;;;25.40;53.50;;;;;;6257214;23;20728;-84
2021/08/01 12:17:55;;;;;;;2.40;2.00;;;25.40;53.40;;;;;;6256534;23;20412;-85
2021/08/01 12:20:43;;;;;;;2.77;2.03;;;25.40;53.40;;;;;;6256183;23;20385;-84
2021/08/01 12:23:17;;;;;;;3.07;1.90;;;25.40;53.40;;;;;;6259315;23;20864;-85
2021/08/01 12:26:56;;;;;;;2.47;2.27;;;25.40;53.40;;;;;;6257044;23;20421;-85
2021/08/01 12:30:04;;;;;;;2.23;1.83;;;25.40;53.30;;;;;;6074866;23;20383;-85
2021/08/01 12:32:44;;;;;;;2.70;1.93;;;25.30;53.30;;;;;;6053888;23;20417;-85
2021/08/01 13:06:39;;;;;;;;;;;;;;;;;;;;;
2021/08/01 14:30:08;;;;;;;2.03;1.83;;;25.60;53.40;;;;;;6269055;23;20364;-83
2021/08/01 14:33:05;;;;;;;2.30;2.10;;;25.60;53.40;;;;;;6237611;23;20377;-84
2021/08/01 14:42:28;;;;;;;2.50;2.30;;;25.50;53.10;;;;;;6114122;23;20369;-84
2021/08/01 14:44:58;;;;;;;3.73;2.10;;;25.50;53.30;;;;;;6111135;23;20409;-85
2021/08/01 14:48:14;;;;;;;;;;;;;;;;;;;;;
2021/08/01 15:12:35;;;;;;;5.80;3.37;;;25.40;52.90;;;;;;5924835;24;20509;-86
2021/08/01 15:36:12;;;;;;;3.50;3.17;;;25.40;53.20;;;;;;5783777;24;20383;-83
2021/08/01 16:37:08;;;;;;;;;;;;;;;;;;;;;
2021/08/01 16:40:36;;;;;;;;;;;;;;;;;;;;;
2021/08/01 16:46:47;;;;;;;2.63;2.43;;;25.20;51.80;;;;;;5968516;23;20516;-85
2021/08/01 17:01:45;;;;;;;;;;;;;;;;;;;;;
2021/08/01 17:04:35;;;;;;;3.20;2.33;;;25.20;51.60;;;;;;5852919;24;20394;-85
2021/08/01 17:07:46;;;;;;;3.33;2.50;;;25.20;51.60;;;;;;5916009;24;20465;-85
2021/08/01 17:14:43;;;;;;;;;;;;;;;;;;;;;
2021/08/01 17:18:13;;;;;;;;;;;;;;;;;;;;;
2021/08/01 17:21:48;;;;;;;2.33;2.13;;;25.10;51.60;;;;;;6127711;23;20376;-85
2021/08/01 17:31:56;;;;;;;;;;;;;;;;;;;;;
2021/08/01 17:35:06;;;;;;;;;;;;;;;;;;;;;
2021/08/01 17:45:29;;;;;;;;;;;;;;;;;;;;;
2021/08/01 17:52:15;;;;;;;;;;;;;;;;;;;;;
2021/08/01 17:55:20;;;;;;;;;;;;;;;;;;;;;
2021/08/01 17:58:29;;;;;;;2.70;2.13;;;25.00;52.40;;;;;;5968503;23;20415;-85
2021/08/01 18:09:10;;;;;;;;;;;;;;;;;;;;;
2021/08/01 18:26:04;;;;;;;2.60;2.00;;;25.00;52.70;;;;;;5973351;23;20382;-88
2021/08/01 18:42:56;;;;;;;1.77;1.60;;;24.90;52.50;;;;;;5969394;24;20391;-85
2021/08/01 18:45:29;;;;;;;2.13;1.93;;;24.90;52.60;;;;;;5969014;23;20432;-84
2021/08/01 18:48:01;;;;;;;2.50;1.93;;;24.80;52.40;;;;;;5968229;23;20391;-84
2021/08/01 18:50:34;;;;;;;2.43;1.80;;;24.90;52.30;;;;;;5968789;23;20470;-84
2021/08/01 18:53:08;;;;;;;1.90;1.80;;;24.90;52.30;;;;;;5968650;23;20390;-84
2021/08/01 18:55:39;;;;;;;2.23;1.83;;;24.90;52.30;;;;;;5968322;23;20389;-84
2021/08/01 18:58:06;;;;;;;2.53;2.00;;;24.90;52.40;;;;;;5991346;24;20390;-84
2021/08/01 19:00:38;;;;;;;2.80;1.77;;;24.80;52.20;;;;;;5968071;24;20391;-84
2021/08/01 19:03:42;;;;;;;1.93;1.77;;;24.90;52.50;;;;;;5993499;24;20807;-84
2021/08/01 19:06:13;;;;;;;1.40;1.30;;;24.90;52.10;;;;;;6057166;23;20419;-84
2021/08/01 19:08:40;;;;;;;1.90;1.67;;;24.80;52.10;;;;;;6057711;23;20419;-83
2021/08/01 19:11:15;;;;;;;2.07;1.90;;;24.80;52.10;;;;;;6079790;23;20379;-84
2021/08/01 19:13:42;;;;;;;2.50;2.27;;;24.80;52.20;;;;;;6081232;23;20378;-84
2021/08/01 19:16:28;;;;;;;2.30;1.63;;;24.80;52.00;;;;;;6199508;23;20448;-85
2021/08/01 19:19:16;;;;;;;2.10;1.53;;;24.80;52.20;;;;;;6234994;23;20408;-85
2021/08/01 19:21:52;;;;;;;2.00;1.70;;;24.80;52.30;;;;;;6234229;23;20404;-84
2021/08/01 19:24:37;;;;;;;3.67;1.70;;;24.80;52.10;;;;;;6210316;23;20381;-84
2021/08/01 19:27:03;;;;;;;1.87;1.70;;;24.80;52.40;;;;;;6233844;23;20413;-84
2021/08/01 19:29:32;;;;;;;1.83;1.63;;;24.70;52.30;;;;;;6261264;23;20374;-84
2021/08/01 19:32:13;;;;;;;1.60;1.50;;;24.80;52.40;;;;;;6234205;23;20374;-84
2021/08/01 19:34:51;;;;;;;3.30;1.70;;;24.80;52.30;;;;;;6234246;23;20463;-84
2021/08/01 19:37:57;;;;;;;1.90;1.73;;;24.80;52.10;;;;;;6235114;23;20473;-84
2021/08/01 19:40:29;;;;;;;1.63;1.53;;;24.80;52.20;;;;;;6261470;23;20361;-83
2021/08/01 19:42:57;;;;;;;1.70;1.47;;;24.70;52.40;;;;;;6260467;23;20369;-83
2021/08/01 19:45:30;;;;;;;2.73;2.00;;;24.70;52.40;;;;;;6262191;23;20409;-84
2021/08/01 19:48:02;;;;;;;2.70;1.73;;;24.70;52.30;;;;;;6262129;23;20692;-84
2021/08/01 19:50:31;;;;;;;1.60;1.50;;;24.80;52.20;;;;;;6235302;23;20380;-83
2021/08/01 19:53:13;;;;;;;2.10;1.70;;;24.80;52.30;;;;;;6234941;23;20416;-83
2021/08/01 19:55:39;;;;;;;2.07;1.70;;;24.80;52.30;;;;;;6234655;23;20471;-84
2021/08/01 19:58:11;;;;;;;1.63;1.50;;;24.70;52.10;;;;;;6234814;23;20468;-84
2021/08/01 20:00:40;;;;;;;3.03;1.50;;;24.80;52.30;;;;;;6234698;23;20385;-83
2021/08/01 20:03:12;;;;;;;1.70;1.60;;;24.80;52.20;;;;;;6235305;23;20404;-84
2021/08/01 20:05:44;;;;;;;2.20;1.80;;;24.70;52.30;;;;;;6259765;23;20424;-83
2021/08/01 20:08:30;;;;;;;1.60;1.50;;;24.70;52.40;;;;;;6261602;23;20433;-84
2021/08/01 20:11:05;;;;;;;2.77;1.80;;;24.60;52.50;;;;;;6232319;23;20385;-83
2021/08/01 20:13:39;;;;;;;1.50;1.40;;;24.60;52.70;;;;;;6233935;23;20377;-84
2021/08/01 20:16:05;;;;;;;1.90;1.73;;;24.60;52.70;;;;;;6258647;23;20389;-83
2021/08/01 20:18:36;;;;;;;1.73;1.63;;;24.60;52.60;;;;;;6233626;23;20385;-83
2021/08/01 20:21:09;;;;;;;2.10;1.50;;;24.60;52.70;;;;;;6233193;23;20396;-83
2021/08/01 20:23:38;;;;;;;2.27;1.50;;;24.60;52.90;;;;;;6233890;23;20381;-83
2021/08/01 20:26:05;;;;;;;1.73;1.50;;;24.60;52.70;;;;;;6235043;23;20421;-83
2021/08/01 20:28:34;;;;;;;2.33;1.77;;;24.60;52.70;;;;;;6235305;23;20381;-82
2021/08/01 20:34:27;;;;;;;1.70;1.60;;;24.60;52.90;;;;;;6263021;23;20349;-83
2021/08/01 20:36:55;;;;;;;2.20;1.83;;;24.50;53.10;;;;;;6234337;23;20439;-83
2021/08/01 20:39:28;;;;;;;2.10;1.90;;;24.40;53.10;;;;;;6261783;23;20380;-83
2021/08/01 20:41:56;;;;;;;2.27;1.70;;;24.40;53.20;;;;;;6261044;23;20361;-82
2021/08/01 20:44:28;;;;;;;3.63;1.83;;;24.40;53.30;;;;;;6237076;23;20377;-82
2021/08/01 20:46:56;;;;;;;2.17;1.90;;;24.40;53.30;;;;;;6261796;23;20417;-84
2021/08/01 20:49:35;;;;;;;4.07;1.70;;;24.40;53.30;;;;;;6237759;23;20407;-81
2021/08/01 20:52:53;;;;;;;2.10;1.90;;;24.40;53.40;;;;;;6237475;23;20362;-82
2021/08/01 21:08:58;;;;;;;3.30;1.83;;;24.30;53.70;;;;;;6062389;23;20392;-80